Time;durP1;ratioP1;P1;durP2;ratioP2;P2;SDS_P1;SDS_P2;PMS_P1;PMS_P2;Temp;Humidity;BMP_temperature;BMP_pressure;BME280_temperature;BME280_humidity;BME280_pressure;Samples;Min_cycle;Max_cycle;Signal;HPM_P1;HPM_P2
2024/01/13 00:00:01;;;;;;;12.67;8.20;;;1.30;99.90;;;-141.84;96.99;88931.63;5111436;28;20231;-61
2024/01/13 00:02:29;;;;;;;12.53;8.30;;;1.30;99.90;;;-141.84;97.39;88931.63;5107755;28;20226;-60
2024/01/13 00:04:57;;;;;;;11.93;9.00;;;1.30;99.90;;;-141.84;97.37;90255.47;5103186;28;20220;-61
2024/01/13 00:07:26;;;;;;;10.90;8.00;;;1.30;99.90;;;-141.84;97.39;89461.13;5111693;28;20223;-61
2024/01/13 00:09:54;;;;;;;10.53;7.87;;;1.30;99.90;;;-141.84;98.62;92639.44;5110643;28;20223;-60
2024/01/13 00:12:24;;;;;;;13.37;8.90;;;1.30;99.90;;;-141.84;98.44;92639.44;5111081;28;20231;-60
2024/01/13 00:14:52;;;;;;;12.20;9.10;;;1.30;99.90;;;-141.84;98.99;94229.53;5111285;28;20247;-60
2024/01/13 00:17:20;;;;;;;11.07;8.70;;;1.30;99.90;;;-141.84;98.34;92109.53;5111405;28;20191;-61
2024/01/13 00:19:48;;;;;;;13.17;9.30;;;1.30;99.90;;;-141.84;100.00;97146.31;5110451;28;20218;-60
2024/01/13 00:22:17;;;;;;;13.07;9.60;;;1.30;99.90;;;-141.84;100.00;96881.06;5110803;28;20219;-63
2024/01/13 00:24:45;;;;;;;14.23;10.00;;;1.30;99.90;;;-141.84;100.00;98472.84;5103456;28;20768;-60
2024/01/13 00:27:13;;;;;;;17.17;10.33;;;1.30;99.90;;;-141.84;100.00;97942.19;5110044;28;20588;-60
2024/01/13 00:29:43;;;;;;;14.00;9.57;;;1.20;99.90;;;-141.84;100.00;99268.97;5111169;28;20283;-62
2024/01/13 00:32:12;;;;;;;14.00;10.37;;;1.30;99.90;;;-141.84;99.98;96881.06;5103515;28;20195;-60
2024/01/13 00:34:40;;;;;;;15.80;10.80;;;1.20;99.90;;;-141.84;100.00;101392.69;5110796;28;20227;-60
2024/01/13 00:37:08;;;;;;;15.40;10.83;;;1.30;99.90;;;-141.84;100.00;99534.38;5107799;28;20245;-60
2024/01/13 00:39:36;;;;;;;15.27;11.10;;;1.20;99.90;;;-141.84;100.00;101658.25;5106242;28;20314;-60
2024/01/13 00:42:05;;;;;;;16.13;11.13;;;1.20;99.90;;;-141.84;100.00;105111.94;5110967;28;20302;-60
2024/01/13 00:44:34;;;;;;;16.33;10.97;;;1.10;99.90;;;-141.84;100.00;106441.06;5110702;28;20653;-60
2024/01/13 00:47:03;;;;;;;15.13;11.10;;;1.10;99.90;;;-141.84;100.00;108568.56;5111379;28;20588;-61
2024/01/13 00:49:31;;;;;;;15.07;10.23;;;1.10;99.90;;;-141.84;100.00;111229.50;5110594;28;20771;-61
2024/01/13 00:52:00;;;;;;;13.40;9.80;;;1.10;99.90;;;-141.84;100.00;112826.88;5105735;28;20766;-60
2024/01/13 00:54:28;;;;;;;12.63;9.67;;;1.10;99.90;;;-141.84;100.00;112028.13;5110130;28;20707;-61
2024/01/13 00:56:56;;;;;;;12.00;9.07;;;1.10;99.90;;;-141.84;100.00;110697.16;5110073;28;20225;-61
2024/01/13 00:59:25;;;;;;;10.30;8.37;;;1.00;99.90;;;-141.84;100.00;111495.69;5111169;28;20249;-61
2024/01/13 01:01:53;;;;;;;12.00;9.20;;;1.00;99.90;;;-141.84;100.00;112826.88;5110874;28;20258;-61
2024/01/13 01:04:22;;;;;;;11.13;8.93;;;1.00;99.90;;;-141.84;100.00;114691.31;5110202;28;20255;-60
2024/01/13 01:06:51;;;;;;;13.43;9.70;;;1.00;99.90;;;-141.84;100.00;115757.06;5103741;28;20220;-60
2024/01/13 01:09:19;;;;;;;15.10;10.30;;;0.90;99.90;;;-141.84;100.00;116290.06;5110114;28;20218;-61
2024/01/13 01:11:48;;;;;;;12.60;9.60;;;0.90;99.90;;;-141.84;100.00;116023.56;5110446;28;20231;-59
2024/01/13 01:14:16;;;;;;;14.50;10.77;;;1.00;99.90;;;-141.84;100.00;113359.50;5102612;28;20203;-60
2024/01/13 01:16:44;;;;;;;14.00;10.63;;;1.00;99.90;;;-141.84;100.00;112294.34;5110922;28;20247;-60
2024/01/13 01:19:13;;;;;;;13.60;9.90;;;0.90;99.90;;;-141.84;100.00;113359.50;5110608;28;20238;-61
2024/01/13 01:21:42;;;;;;;12.83;9.30;;;0.90;99.90;;;-141.84;100.00;112560.63;5110364;28;20268;-60
2024/01/13 01:24:11;;;;;;;13.70;9.33;;;0.90;99.90;;;-141.84;100.00;113625.81;5109906;28;20216;-60
2024/01/13 01:26:39;;;;;;;13.53;10.10;;;0.90;99.90;;;-141.84;100.00;114957.72;5110091;28;20204;-60
2024/01/13 01:29:08;;;;;;;13.60;9.70;;;0.90;99.90;;;-141.84;100.00;110164.91;5111435;28;20283;-61
2024/01/13 01:31:36;;;;;;;14.17;10.23;;;1.00;99.90;;;-141.84;100.00;110164.91;5112624;28;20306;-61
2024/01/13 01:34:04;;;;;;;11.57;9.17;;;1.10;99.90;;;-141.84;100.00;112028.13;5115092;28;20224;-61
2024/01/13 01:36:34;;;;;;;15.67;10.00;;;1.00;99.90;;;-141.84;100.00;113093.19;5114893;28;20692;-61
2024/01/13 01:39:03;;;;;;;14.77;9.43;;;1.00;99.90;;;-141.84;100.00;113093.19;5113643;28;20231;-61
2024/01/13 01:41:33;;;;;;;12.70;9.20;;;1.00;99.90;;;-141.84;100.00;113892.16;5114199;28;20183;-61
2024/01/13 01:44:01;;;;;;;13.67;10.70;;;1.00;99.90;;;-141.84;100.00;114691.31;5114257;28;20248;-61
2024/01/13 01:46:32;;;;;;;12.80;9.50;;;1.00;99.90;;;-141.84;100.00;114957.72;5114121;28;20231;-61
2024/01/13 01:49:01;;;;;;;15.47;9.83;;;0.90;99.90;;;-141.84;100.00;114691.31;5105609;28;20740;-61
2024/01/13 01:51:31;;;;;;;14.83;9.57;;;1.00;99.90;;;-141.84;100.00;114957.72;5114396;28;20241;-61
2024/01/13 01:54:01;;;;;;;13.30;9.00;;;1.00;99.90;;;-141.84;100.00;115757.06;5113986;28;20223;-61
2024/01/13 01:56:35;;;;;;;12.13;8.67;;;1.00;99.90;;;-141.84;100.00;115224.16;5113509;28;20204;-60
2024/01/13 01:59:04;;;;;;;13.73;9.80;;;1.00;99.90;;;-141.84;100.00;116023.56;5115086;28;20216;-61
2024/01/13 02:01:32;;;;;;;15.00;9.77;;;1.00;99.90;;;-141.84;100.00;114424.91;5113782;28;20223;-61
2024/01/13 02:04:02;;;;;;;13.70;9.33;;;1.00;99.90;;;-141.84;100.00;113625.81;5113421;28;20315;-60
2024/01/13 02:06:31;;;;;;;12.17;8.87;;;1.00;99.90;;;-141.84;100.00;113093.19;5107008;28;20728;-60
2024/01/13 02:09:00;;;;;;;12.77;9.00;;;1.00;99.90;;;-141.84;100.00;115224.16;5104838;28;20222;-61
2024/01/13 02:11:29;;;;;;;12.80;9.33;;;1.00;99.90;;;-141.84;100.00;115757.06;5113611;28;20272;-60
2024/01/13 02:13:58;;;;;;;13.73;9.03;;;0.90;99.90;;;-141.84;100.00;115224.16;5113409;28;20191;-60
2024/01/13 02:16:27;;;;;;;13.20;9.73;;;0.90;99.90;;;-141.84;100.00;114691.31;5113337;27;20250;-60
2024/01/13 02:18:55;;;;;;;13.23;9.60;;;0.90;99.90;;;-141.84;100.00;115757.06;5110825;28;20297;-60
2024/01/13 02:21:23;;;;;;;12.40;9.27;;;0.90;99.90;;;-141.84;100.00;116023.56;5113410;28;20226;-60
2024/01/13 02:23:53;;;;;;;14.07;9.80;;;1.00;99.90;;;-141.84;100.00;116023.56;5112556;28;20227;-60
2024/01/13 02:26:21;;;;;;;13.43;9.60;;;0.90;99.90;;;-141.84;100.00;116556.59;5112682;28;20219;-60
2024/01/13 02:28:49;;;;;;;14.37;10.33;;;0.90;99.90;;;-141.84;100.00;115757.06;5112773;28;20649;-60
2024/01/13 02:31:18;;;;;;;13.70;9.37;;;1.00;99.90;;;-141.84;100.00;115757.06;5113060;28;20768;-60
2024/01/13 02:33:51;;;;;;;14.40;9.97;;;1.00;99.90;;;-141.84;100.00;115757.06;5112839;27;20218;-60
2024/01/13 02:36:22;;;;;;;12.93;9.30;;;0.90;99.90;;;-141.84;100.00;115224.16;5106146;28;20230;-59
2024/01/13 02:38:54;;;;;;;14.70;10.27;;;0.90;99.90;;;-141.84;100.00;115757.06;5112756;28;20235;-61
2024/01/13 02:41:22;;;;;;;14.33;9.40;;;0.90;99.90;;;-141.84;100.00;116290.06;5112804;28;20314;-62
2024/01/13 02:43:51;;;;;;;12.77;8.50;;;1.00;99.90;;;-141.84;100.00;117622.84;5112790;28;20309;-60
2024/01/13 02:46:19;;;;;;;12.83;9.00;;;1.00;99.90;;;-141.84;100.00;117889.44;5112229;27;20249;-60
2024/01/13 02:48:52;;;;;;;11.97;8.83;;;0.90;99.90;;;-141.84;100.00;117356.25;5111868;28;20297;-61
2024/01/13 02:51:21;;;;;;;12.60;9.67;;;0.90;99.90;;;-141.84;100.00;117622.84;5112360;28;20310;-61
2024/01/13 02:53:50;;;;;;;13.33;8.93;;;1.00;99.90;;;-141.84;100.00;117356.25;5110019;28;20676;-59
2024/01/13 02:56:19;;;;;;;12.33;8.70;;;1.00;99.90;;;-141.84;100.00;117356.25;5105213;28;20192;-61
2024/01/13 02:58:48;;;;;;;12.80;8.97;;;1.00;99.90;;;-141.84;100.00;116556.59;5112626;28;20279;-60
2024/01/13 03:01:17;;;;;;;11.73;8.67;;;1.00;99.90;;;-141.84;100.00;115224.16;5108335;27;20220;-60
2024/01/13 03:03:49;;;;;;;12.33;9.07;;;1.10;99.90;;;-141.84;100.00;114691.31;5111798;27;20215;-59
2024/01/13 03:06:23;;;;;;;10.60;8.23;;;1.00;99.90;;;-141.84;100.00;114957.72;5112250;28;20331;-60
2024/01/13 03:08:53;;;;;;;11.57;8.60;;;1.00;99.90;;;-141.84;100.00;114957.72;5111967;28;20326;-62
2024/01/13 03:11:24;;;;;;;12.87;8.80;;;1.00;99.90;;;-141.84;100.00;115224.16;5112789;28;20229;-60
2024/01/13 03:13:55;;;;;;;12.40;8.93;;;1.10;99.90;;;-141.84;100.00;113625.81;5111610;28;20741;-60
2024/01/13 03:16:24;;;;;;;12.27;8.90;;;1.00;99.90;;;-141.84;100.00;113093.19;5112475;28;20755;-60
2024/01/13 03:18:52;;;;;;;12.00;8.13;;;1.20;99.90;;;-141.84;100.00;111761.88;5112616;28;20219;-62
2024/01/13 03:21:20;;;;;;;11.57;8.07;;;1.10;99.90;;;-141.84;100.00;110697.16;5112276;28;20238;-60
2024/01/13 03:23:49;;;;;;;11.87;8.20;;;1.20;99.90;;;-141.84;100.00;109632.72;5110920;28;20223;-61
2024/01/13 03:26:17;;;;;;;11.47;8.43;;;1.10;99.90;;;-141.84;100.00;110697.16;5112031;28;20548;-60
2024/01/13 03:28:47;;;;;;;11.30;8.30;;;1.20;99.90;;;-141.84;100.00;109898.81;5111599;28;20295;-64
2024/01/13 03:31:15;;;;;;;11.07;8.17;;;1.20;99.90;;;-141.84;100.00;109898.81;5111677;28;20215;-60
2024/01/13 03:33:46;;;;;;;11.13;8.40;;;1.20;99.90;;;-141.84;100.00;110697.16;5111800;28;20225;-60
2024/01/13 03:36:17;;;;;;;11.53;8.43;;;1.30;99.90;;;-141.84;100.00;111495.69;5099422;28;20215;-61
2024/01/13 03:38:47;;;;;;;11.20;8.33;;;1.20;99.90;;;-141.84;100.00;112826.88;5111424;27;20649;-61
2024/01/13 03:41:19;;;;;;;11.87;8.40;;;1.20;99.90;;;-141.84;100.00;112560.63;5111789;28;20215;-61
2024/01/13 03:43:49;;;;;;;11.27;8.23;;;1.20;99.90;;;-141.84;100.00;112560.63;5111397;28;20712;-60
2024/01/13 03:46:18;;;;;;;12.30;8.83;;;1.20;99.90;;;-141.84;100.00;112028.13;5111234;28;20226;-60
2024/01/13 03:48:46;;;;;;;13.30;8.83;;;1.20;99.90;;;-141.84;100.00;109898.81;5110677;28;20223;-60
2024/01/13 03:51:16;;;;;;;11.97;8.53;;;1.20;99.90;;;-141.84;100.00;111761.88;5110976;28;20254;-61
2024/01/13 03:53:45;;;;;;;12.27;8.60;;;1.30;99.90;;;-141.84;100.00;110697.16;5110946;28;20202;-62
2024/01/13 03:56:13;;;;;;;11.67;8.40;;;1.20;99.90;;;-141.84;100.00;110963.31;5102841;28;20203;-61
2024/01/13 03:58:41;;;;;;;12.27;8.87;;;1.30;99.90;;;-141.84;100.00;110164.91;5111402;28;20704;-60
2024/01/13 04:01:11;;;;;;;12.40;8.70;;;1.20;99.90;;;-141.84;100.00;109898.81;5107580;28;20223;-61
2024/01/13 04:03:39;;;;;;;12.70;8.53;;;1.30;99.90;;;-141.84;100.00;107770.63;5110518;28;20707;-60
2024/01/13 04:06:08;;;;;;;13.93;8.50;;;1.30;99.90;;;-141.84;100.00;107770.63;5110605;28;20230;-59
2024/01/13 04:08:38;;;;;;;11.73;8.17;;;1.30;99.90;;;-141.84;100.00;106175.19;5110662;28;20240;-60
2024/01/13 04:11:09;;;;;;;11.00;8.57;;;1.30;99.90;;;-141.84;100.00;107770.63;5111245;28;20187;-60
2024/01/13 04:13:38;;;;;;;10.87;8.47;;;1.30;99.90;;;-141.84;100.00;109898.81;5110903;28;20568;-59
2024/01/13 04:16:08;;;;;;;11.07;8.30;;;1.30;99.90;;;-141.84;100.00;108302.56;5110519;28;20223;-59
2024/01/13 04:18:39;;;;;;;11.57;8.20;;;1.30;99.90;;;-141.84;100.00;109898.81;5110351;28;20700;-60
2024/01/13 04:21:08;;;;;;;11.97;9.27;;;1.20;99.90;;;-141.84;100.00;112294.34;5110483;28;20245;-61
2024/01/13 04:23:50;;;;;;;11.13;8.03;;;1.20;99.90;;;-141.84;100.00;112294.34;5104574;28;20242;-60
2024/01/13 04:26:20;;;;;;;10.97;8.73;;;1.30;99.90;;;-141.84;100.00;111761.88;5111297;28;20195;-60
2024/01/13 04:28:48;;;;;;;14.53;9.10;;;1.30;99.90;;;-141.84;100.00;112826.88;5110561;28;20306;-60
2024/01/13 04:31:16;;;;;;;12.50;9.00;;;1.20;99.90;;;-141.84;100.00;115490.59;5110482;28;20215;-60
2024/01/13 04:33:46;;;;;;;13.13;9.67;;;1.10;99.90;;;-141.84;100.00;114424.91;5110275;28;20445;-59
2024/01/13 04:36:15;;;;;;;12.50;9.63;;;1.20;99.90;;;-141.84;100.00;113093.19;5103222;28;20219;-60
2024/01/13 04:38:44;;;;;;;13.10;8.80;;;1.20;99.90;;;-141.84;100.00;112826.88;5110521;28;20669;-61
2024/01/13 04:41:12;;;;;;;12.43;8.63;;;1.20;99.90;;;-141.84;100.00;112560.63;5110994;28;20230;-61
2024/01/13 04:43:41;;;;;;;11.90;8.83;;;1.20;99.90;;;-141.84;100.00;112560.63;5110533;28;20215;-61
2024/01/13 04:46:10;;;;;;;11.27;8.60;;;1.20;99.90;;;-141.84;100.00;114158.53;5110541;28;20637;-60
2024/01/13 04:48:39;;;;;;;14.77;9.33;;;1.20;99.90;;;-141.84;100.00;114424.91;5110292;28;20341;-61
2024/01/13 04:51:10;;;;;;;13.00;8.57;;;1.20;99.90;;;-141.84;100.00;113359.50;5110216;28;20238;-60
2024/01/13 04:53:38;;;;;;;12.40;9.33;;;1.20;99.90;;;-141.84;100.00;113093.19;5110540;28;20195;-60
2024/01/13 04:56:07;;;;;;;14.30;9.60;;;1.20;99.90;;;-141.84;100.00;114424.91;5110919;28;20204;-60
2024/01/13 04:58:35;;;;;;;10.77;7.80;;;1.20;99.90;;;-141.84;100.00;113892.16;5110479;28;20223;-60
2024/01/13 05:01:03;;;;;;;12.77;8.80;;;1.20;99.90;;;-141.84;100.00;111229.50;5110245;28;20315;-60
2024/01/13 05:03:32;;;;;;;13.53;8.67;;;1.30;99.90;;;-141.84;100.00;108834.56;5101837;28;20900;-60
2024/01/13 05:06:01;;;;;;;14.70;9.50;;;1.30;99.90;;;-141.84;100.00;107504.66;5111727;28;20219;-60
2024/01/13 05:08:31;;;;;;;12.30;8.73;;;1.30;99.90;;;-141.84;100.00;108568.56;5113792;28;20684;-60
2024/01/13 05:10:59;;;;;;;13.60;8.37;;;1.30;99.90;;;-141.84;100.00;106706.94;5114617;28;20605;-61
2024/01/13 05:13:27;;;;;;;12.27;8.43;;;1.30;99.90;;;-141.84;100.00;108568.56;5114195;28;20219;-60
2024/01/13 05:15:56;;;;;;;13.07;9.20;;;1.30;99.90;;;-141.84;100.00;107238.72;5113487;27;20773;-61
2024/01/13 05:18:24;;;;;;;14.90;8.90;;;1.30;99.90;;;-141.84;100.00;108302.56;5114146;28;20242;-60
2024/01/13 05:20:52;;;;;;;11.87;9.30;;;1.40;99.90;;;-141.84;100.00;105377.72;5114041;28;20227;-59
2024/01/13 05:23:20;;;;;;;12.10;8.93;;;1.30;99.90;;;-141.84;100.00;104048.94;5114348;28;20220;-59
2024/01/13 05:25:51;;;;;;;13.63;9.47;;;1.30;99.90;;;-141.84;100.00;104314.66;5113911;28;20239;-59
2024/01/13 05:28:19;;;;;;;12.40;8.40;;;1.30;99.90;;;-141.84;100.00;106175.19;5109532;28;20223;-60
2024/01/13 05:30:47;;;;;;;12.90;8.93;;;1.30;99.90;;;-141.84;100.00;106175.19;5113463;28;20227;-60
2024/01/13 05:33:15;;;;;;;12.27;8.27;;;1.30;99.90;;;-141.84;100.00;103517.56;5109031;28;20894;-60
2024/01/13 05:35:44;;;;;;;12.47;8.47;;;1.30;99.90;;;-141.84;100.00;104048.94;5112874;28;20200;-59
2024/01/13 05:38:12;;;;;;;12.20;9.23;;;1.30;99.90;;;-141.84;100.00;104048.94;5112729;28;20203;-60
2024/01/13 05:40:44;;;;;;;12.40;9.43;;;1.30;99.90;;;-141.84;100.00;103783.25;5112652;27;20279;-60
2024/01/13 05:43:13;;;;;;;12.37;8.73;;;1.30;99.90;;;-141.84;100.00;103517.56;5112493;28;20218;-59
2024/01/13 05:45:42;;;;;;;12.70;8.93;;;1.40;99.90;;;-141.84;100.00;104048.94;5112972;28;20755;-60
2024/01/13 05:48:10;;;;;;;11.93;8.50;;;1.30;99.90;;;-141.84;100.00;101658.25;5108212;28;20223;-60
2024/01/13 05:50:38;;;;;;;10.60;8.03;;;1.30;99.90;;;-141.84;100.00;103517.56;5113600;28;20195;-60
2024/01/13 05:53:07;;;;;;;11.80;8.50;;;1.40;99.90;;;-141.84;100.00;103517.56;5114046;28;20275;-60
2024/01/13 05:55:35;;;;;;;11.90;8.17;;;1.30;99.90;;;-141.84;100.00;104048.94;5086742;28;20697;-60
2024/01/13 05:58:05;;;;;;;11.77;8.60;;;1.30;99.90;;;-141.84;100.00;101392.69;5097615;28;20622;-61
2024/01/13 06:00:34;;;;;;;12.87;8.90;;;1.40;99.90;;;-141.84;100.00;99268.97;5113567;27;20227;-62
2024/01/13 06:03:03;;;;;;;12.63;9.03;;;1.40;99.90;;;-141.84;100.00;97676.88;5105265;28;20231;-59
2024/01/13 06:05:32;;;;;;;13.20;8.53;;;1.40;99.90;;;-141.84;100.00;100330.69;5113059;28;20242;-60
2024/01/13 06:08:00;;;;;;;10.70;8.83;;;1.40;99.90;;;-141.84;100.00;101127.16;5113599;28;20226;-60
2024/01/13 06:10:29;;;;;;;12.73;8.27;;;1.40;99.90;;;-141.84;100.00;103783.25;5113001;28;20310;-61
2024/01/13 06:12:59;;;;;;;12.50;8.77;;;1.30;99.90;;;-141.84;100.00;104314.66;5104637;28;20653;-59
2024/01/13 06:15:28;;;;;;;12.57;8.40;;;1.30;99.90;;;-141.84;100.00;102986.25;5113290;27;20223;-61
2024/01/13 06:17:58;;;;;;;12.13;8.43;;;1.40;99.90;;;-141.84;100.00;102455.00;5110663;27;20234;-60
2024/01/13 06:20:27;;;;;;;12.90;8.63;;;1.30;99.90;;;-141.84;100.00;100330.69;5113955;27;20195;-60
2024/01/13 06:22:55;;;;;;;10.60;8.07;;;1.30;99.90;;;-141.84;100.00;99799.78;5113056;28;20223;-60
2024/01/13 06:25:23;;;;;;;10.93;7.97;;;1.30;99.90;;;-141.84;99.83;97942.19;5112590;28;20298;-61
2024/01/13 06:27:51;;;;;;;9.53;7.70;;;1.40;99.90;;;-141.84;97.76;94229.53;5100669;28;20755;-60
2024/01/13 06:30:20;;;;;;;9.63;7.23;;;1.40;99.90;;;-141.84;96.19;87872.91;5084337;28;20225;-60
2024/01/13 06:32:48;;;;;;;10.10;7.80;;;1.50;99.90;;;-141.84;95.41;84698.34;5090892;28;20770;-60
2024/01/13 06:35:18;;;;;;;11.60;8.23;;;1.50;99.90;;;-141.84;94.72;84962.78;5093324;28;20208;-61
2024/01/13 06:37:46;;;;;;;10.70;7.23;;;1.50;99.90;;;-141.84;94.15;80469.50;5091867;28;20224;-60
2024/01/13 06:40:15;;;;;;;10.93;6.90;;;1.60;99.90;;;-141.84;96.38;87343.63;5091452;28;20693;-60
2024/01/13 06:42:44;;;;;;;9.53;7.40;;;1.50;99.90;;;-141.84;96.64;88931.63;5091429;28;20239;-61
2024/01/13 06:45:12;;;;;;;10.17;7.40;;;1.50;99.90;;;-141.84;95.47;86549.84;5092703;28;20225;-60
2024/01/13 06:47:40;;;;;;;10.03;7.60;;;1.40;99.90;;;-141.84;95.88;86285.31;5084247;28;20264;-60
2024/01/13 06:50:10;;;;;;;11.03;7.50;;;1.40;99.90;;;-141.84;97.00;89990.66;5093703;28;20200;-59
2024/01/13 06:52:39;;;;;;;10.30;7.53;;;1.40;99.90;;;-141.84;94.51;82319.06;5093070;28;20230;-60
2024/01/13 06:55:09;;;;;;;9.93;8.20;;;1.50;99.90;;;-141.84;95.51;85756.25;5092653;28;20239;-62
2024/01/13 06:57:37;;;;;;;10.37;7.20;;;1.50;99.90;;;-141.84;94.79;84169.50;5092360;28;20262;-60
2024/01/13 07:00:07;;;;;;;10.60;7.87;;;1.50;99.90;;;-141.84;94.43;82847.66;5090660;28;20696;-60
2024/01/13 07:02:36;;;;;;;10.07;7.37;;;1.50;99.90;;;-141.84;95.40;84169.50;5091325;28;20855;-61
2024/01/13 07:05:06;;;;;;;12.53;7.80;;;1.50;99.90;;;-141.84;94.85;83640.72;5092324;28;20235;-61
2024/01/13 07:07:34;;;;;;;10.33;7.10;;;1.50;99.90;;;-141.84;96.39;87079.03;5091688;28;20302;-61
2024/01/13 07:10:05;;;;;;;9.57;7.47;;;1.50;99.90;;;-141.84;95.99;87079.03;5092207;28;20319;-61
2024/01/13 07:12:33;;;;;;;11.47;7.93;;;1.50;99.90;;;-141.84;95.92;87343.63;5091863;28;20240;-61
2024/01/13 07:15:02;;;;;;;10.67;7.83;;;1.50;99.90;;;-141.84;92.76;78884.81;5091851;28;20219;-60
2024/01/13 07:17:32;;;;;;;10.47;8.00;;;1.60;99.90;;;-141.84;92.92;75717.34;5090531;28;20298;-59
2024/01/13 07:20:00;;;;;;;9.83;7.77;;;1.50;99.90;;;-141.84;94.99;82583.34;5091842;28;20699;-60
2024/01/13 07:22:29;;;;;;;10.70;7.93;;;1.50;99.90;;;-141.84;93.92;82054.78;5091342;28;20216;-60
2024/01/13 07:24:57;;;;;;;9.43;7.23;;;1.50;99.90;;;-141.84;92.85;75717.34;5091315;28;20244;-60
2024/01/13 07:27:27;;;;;;;10.47;7.63;;;1.60;99.90;;;-141.84;92.10;73870.81;5091202;28;20247;-60
2024/01/13 07:29:55;;;;;;;10.90;7.93;;;1.60;99.90;;;-141.84;92.15;74662.09;5091543;28;20247;-60
2024/01/13 07:32:29;;;;;;;13.90;8.40;;;1.60;99.90;;;-141.84;89.67;63335.53;5091154;28;20192;-60
2024/01/13 07:34:57;;;;;;;11.90;7.87;;;1.70;99.90;;;-141.84;90.57;65703.56;5083447;28;20200;-61
2024/01/13 07:37:26;;;;;;;10.17;7.53;;;1.70;99.90;;;-141.84;89.99;65177.19;5091237;28;20219;-60
2024/01/13 07:39:54;;;;;;;11.50;8.07;;;1.70;99.90;;;-141.84;89.00;58078.34;5090953;28;20873;-60
2024/01/13 07:42:22;;;;;;;10.53;7.70;;;1.70;99.90;;;-141.84;91.16;67809.63;5090039;28;20875;-61
2024/01/13 07:44:52;;;;;;;10.20;8.07;;;1.70;99.90;;;-141.84;92.03;72288.75;5091157;28;20254;-60
2024/01/13 07:47:20;;;;;;;9.40;7.57;;;1.60;99.90;;;-141.84;92.83;75981.22;5090227;28;20200;-61
2024/01/13 07:49:49;;;;;;;10.33;7.97;;;1.60;99.90;;;-141.84;92.60;75717.34;5091567;28;20310;-60
2024/01/13 07:52:17;;;;;;;9.03;7.60;;;1.60;99.90;;;-141.84;89.53;63072.50;5090212;28;20689;-61
2024/01/13 07:54:45;;;;;;;11.20;8.63;;;1.70;99.90;;;-141.84;89.08;58866.47;5090177;28;20592;-61
2024/01/13 07:57:14;;;;;;;10.40;8.23;;;1.70;99.90;;;-141.84;89.44;61231.81;5088902;28;20925;-61
2024/01/13 07:59:43;;;;;;;17.17;11.83;;;1.70;99.90;;;-141.84;88.73;58078.34;5088030;28;20276;-61
2024/01/13 08:02:14;;;;;;;10.53;8.07;;;1.70;99.90;;;-141.84;87.56;52041.16;5090194;28;20265;-61
2024/01/13 08:04:43;;;;;;;9.47;7.60;;;1.70;99.90;;;-141.84;86.57;47584.78;5087247;28;20235;-61
2024/01/13 08:07:12;;;;;;;9.17;7.03;;;1.80;99.90;;;-141.84;86.32;42610.09;5103915;28;20210;-60
2024/01/13 08:09:42;;;;;;;10.03;6.90;;;1.80;99.90;;;-141.84;86.88;45227.56;5108257;28;20246;-60
2024/01/13 08:12:11;;;;;;;10.07;7.77;;;1.80;99.90;;;-141.84;86.16;41302.00;5111351;28;20219;-61
2024/01/13 08:14:39;;;;;;;8.97;6.77;;;1.90;99.90;;;-141.84;85.48;35535.25;5108886;28;20599;-61
2024/01/13 08:17:08;;;;;;;9.87;8.07;;;1.90;99.90;;;-141.84;86.15;42348.44;5090870;28;20197;-61
2024/01/13 08:19:38;;;;;;;9.57;7.17;;;1.80;99.90;;;-141.84;85.45;37333.41;5089601;28;20220;-60
2024/01/13 08:22:07;;;;;;;8.50;7.07;;;1.80;99.90;;;-141.84;86.52;43656.88;5104422;28;20223;-61
2024/01/13 08:24:35;;;;;;;9.40;7.03;;;1.90;99.90;;;-141.84;87.01;46798.88;5103315;28;20814;-60
2024/01/13 08:27:05;;;;;;;8.83;7.20;;;1.90;99.90;;;-141.84;87.65;50729.94;5091243;27;20239;-60
2024/01/13 08:29:33;;;;;;;8.17;6.90;;;1.80;99.90;;;-141.84;85.15;39634.81;5090030;28;20204;-60
2024/01/13 08:32:02;;;;;;;8.30;6.73;;;1.90;99.90;;;-141.84;85.13;34874.19;5083084;28;20253;-60
2024/01/13 08:34:30;;;;;;;7.93;6.70;;;1.90;99.90;;;-141.84;84.29;30160.06;5088416;28;20219;-60
2024/01/13 08:37:00;;;;;;;8.80;6.67;;;1.90;99.90;;;-141.84;83.07;25317.28;5100051;28;20219;-60
2024/01/13 08:39:28;;;;;;;8.07;6.47;;;2.00;99.90;;;-141.84;83.04;24855.31;5105711;27;20302;-61
2024/01/13 08:41:56;;;;;;;9.10;6.27;;;2.00;99.90;;;-141.84;84.46;28505.75;5114488;28;20282;-61
2024/01/13 08:44:25;;;;;;;8.03;6.37;;;2.00;99.90;;;-141.84;84.17;27786.78;5108254;28;20211;-61
2024/01/13 08:46:53;;;;;;;8.20;6.60;;;1.90;99.90;;;-141.84;83.01;24263.19;5115672;28;20231;-61
2024/01/13 08:49:22;;;;;;;8.03;6.47;;;2.00;99.90;;;-141.84;83.41;25663.28;5115211;28;20227;-61
2024/01/13 08:51:50;;;;;;;10.10;6.87;;;2.00;99.90;;;-141.84;83.39;25618.50;5113864;27;20219;-60
2024/01/13 08:54:23;;;;;;;9.77;7.83;;;2.10;99.90;;;-141.84;83.07;24678.28;5108500;27;20212;-61
2024/01/13 08:56:52;;;;;;;13.87;9.73;;;2.10;99.90;;;-141.84;81.45;20789.50;5105273;28;20232;-60
2024/01/13 08:59:20;;;;;;;10.73;7.60;;;2.10;99.90;;;-141.84;81.35;20834.22;5115411;27;20187;-60
2024/01/13 09:01:49;;;;;;;10.13;7.47;;;2.10;99.90;;;-141.84;79.75;19411.44;5094240;28;20230;-60
2024/01/13 09:04:17;;;;;;;9.23;7.00;;;2.10;99.90;;;-141.84;79.86;19490.72;5085908;28;20236;-60
2024/01/13 09:06:46;;;;;;;8.60;6.80;;;2.20;99.90;;;-141.84;79.70;19354.56;5086215;28;20231;-61
2024/01/13 09:09:14;;;;;;;8.67;6.97;;;2.30;99.90;;;-141.84;78.72;18856.72;5089830;28;20249;-59
2024/01/13 09:11:46;;;;;;;8.70;6.73;;;2.30;99.90;;;-141.84;79.24;19090.38;5086176;28;20228;-60
2024/01/13 09:14:16;;;;;;;9.30;7.03;;;2.30;99.90;;;-141.84;78.62;19023.34;5083531;28;20184;-60
2024/01/13 09:16:45;;;;;;;9.10;7.23;;;2.20;99.90;;;-141.84;78.29;18793.72;5111855;28;20230;-60
2024/01/13 09:19:13;;;;;;;10.80;8.03;;;2.30;99.90;;;-141.84;78.09;18769.34;5113432;28;20222;-61
2024/01/13 09:21:42;;;;;;;10.83;8.00;;;2.20;99.90;;;-141.84;78.81;18875.00;5111134;28;20219;-61
2024/01/13 09:24:16;;;;;;;11.93;9.00;;;2.20;99.90;;;-141.84;78.41;18903.44;5110802;27;20250;-60
2024/01/13 09:26:48;;;;;;;10.50;8.37;;;2.20;99.90;;;-141.84;78.66;18877.03;5124659;27;20179;-60
2024/01/13 09:29:19;;;;;;;9.47;7.73;;;2.30;99.90;;;-141.84;79.30;19094.44;5116174;27;20543;-61
2024/01/13 09:31:49;;;;;;;9.77;7.33;;;2.20;99.90;;;-141.84;79.14;19076.16;5113570;28;20528;-61
2024/01/13 09:34:20;;;;;;;9.17;7.23;;;2.30;99.90;;;-141.84;78.99;19017.25;5111411;27;20214;-61
2024/01/13 09:36:49;;;;;;;9.20;7.07;;;2.30;99.90;;;-141.84;77.93;18747.00;5112908;28;20240;-60
2024/01/13 09:39:21;;;;;;;9.97;8.43;;;2.30;99.90;;;-141.84;78.18;18795.75;5106437;28;20226;-59
2024/01/13 09:41:54;;;;;;;11.30;8.50;;;2.30;99.90;;;-141.84;77.43;18671.81;5093496;28;20833;-60
2024/01/13 09:44:26;;;;;;;10.23;7.67;;;2.30;99.90;;;-141.84;77.51;18675.88;5092316;28;20200;-60
2024/01/13 09:46:57;;;;;;;8.70;7.80;;;2.30;99.90;;;-141.84;78.17;18755.13;5089765;28;20281;-60
2024/01/13 09:49:27;;;;;;;11.33;8.60;;;2.30;99.90;;;-141.84;78.60;18868.91;5079475;28;20222;-60
2024/01/13 09:51:57;;;;;;;11.13;8.20;;;2.20;99.90;;;-141.84;79.24;19047.72;5087946;28;20227;-60
2024/01/13 09:54:27;;;;;;;13.57;9.33;;;2.30;99.90;;;-141.84;79.66;19285.47;5092145;28;20225;-60
2024/01/13 09:56:59;;;;;;;9.53;7.83;;;2.20;99.90;;;-141.84;78.13;18749.03;5092358;28;20246;-61
2024/01/13 09:59:29;;;;;;;10.23;7.53;;;2.30;99.90;;;-141.84;78.04;18834.38;5089959;28;20184;-60
2024/01/13 10:02:02;;;;;;;9.03;7.70;;;2.30;99.90;;;-141.84;76.37;18584.47;5091157;28;20195;-61
2024/01/13 10:04:36;;;;;;;11.03;7.63;;;2.40;99.90;;;-141.84;76.04;18509.28;5110266;28;20231;-59
2024/01/13 10:07:07;;;;;;;9.27;8.00;;;2.40;99.90;;;-141.84;76.57;18576.31;5099059;28;20241;-62